createdAt,value
2024-03-08T00:00:40.401Z,4.53
2024-03-08T00:01:40.408Z,4.49
2024-03-08T00:02:40.400Z,4.46
2024-03-08T00:03:40.351Z,4.48
2024-03-08T00:04:40.364Z,4.46
2024-03-08T00:05:40.500Z,4.43
2024-03-08T00:06:40.341Z,4.43
2024-03-08T00:07:40.327Z,4.42
2024-03-08T00:08:40.348Z,4.39
2024-03-08T00:09:40.304Z,4.39
2024-03-08T00:10:40.617Z,4.38
2024-03-08T00:11:40.337Z,4.38
2024-03-08T00:12:40.273Z,4.31
2024-03-08T00:13:40.227Z,4.35
2024-03-08T00:14:40.237Z,4.30
2024-03-08T00:15:40.252Z,4.30
2024-03-08T00:16:40.225Z,4.28
2024-03-08T00:17:40.270Z,4.27
2024-03-08T00:18:40.308Z,4.26
2024-03-08T00:19:40.206Z,4.24
2024-03-08T00:20:40.206Z,4.18
2024-03-08T00:21:40.148Z,4.18
2024-03-08T00:22:40.153Z,4.17
2024-03-08T00:23:40.185Z,4.17
2024-03-08T00:24:40.126Z,4.16
2024-03-08T00:25:40.137Z,4.13
2024-03-08T00:26:40.198Z,4.16
2024-03-08T00:27:40.113Z,4.09
2024-03-08T00:28:40.088Z,4.12
2024-03-08T00:29:40.179Z,4.12
2024-03-08T00:30:40.085Z,4.08
2024-03-08T00:31:40.037Z,4.06
2024-03-08T00:32:40.187Z,4.05
2024-03-08T00:33:40.176Z,4.00
2024-03-08T00:34:40.050Z,4.02
2024-03-08T00:35:40.054Z,3.99
2024-03-08T00:36:40.006Z,3.98
2024-03-08T00:37:40.035Z,3.92
2024-03-08T00:38:40.045Z,3.92
2024-03-08T00:39:39.974Z,3.91
2024-03-08T00:40:39.977Z,3.88
2024-03-08T00:41:40.000Z,3.90
2024-03-08T00:42:39.959Z,3.88
2024-03-08T00:43:39.958Z,3.85
2024-03-08T00:44:39.947Z,3.84
2024-03-08T00:45:39.894Z,3.82
2024-03-08T00:46:39.919Z,3.82
2024-03-08T00:47:40.396Z,3.76
2024-03-08T00:48:40.005Z,3.78
2024-03-08T00:49:39.850Z,3.74
2024-03-08T00:50:39.880Z,3.76
2024-03-08T00:51:39.845Z,3.73
2024-03-08T00:52:39.838Z,3.73
2024-03-08T00:53:39.868Z,3.73
2024-03-08T00:54:39.810Z,3.69
2024-03-08T00:55:39.785Z,3.67
2024-03-08T00:56:39.804Z,3.67
2024-03-08T00:57:39.849Z,3.64
2024-03-08T00:58:39.784Z,3.64
2024-03-08T00:59:39.805Z,3.63
2024-03-08T01:00:39.881Z,3.62
2024-03-08T01:01:39.772Z,3.59
2024-03-08T01:02:39.735Z,3.60
2024-03-08T01:03:39.699Z,3.59
2024-03-08T01:04:39.709Z,3.55
2024-03-08T01:05:39.750Z,3.54
2024-03-08T01:06:39.748Z,3.52
2024-03-08T01:07:39.705Z,3.51
2024-03-08T01:08:39.804Z,3.48
2024-03-08T01:09:39.646Z,3.48
2024-03-08T01:10:39.647Z,3.48
2024-03-08T01:11:39.759Z,3.46
2024-03-08T01:12:39.614Z,3.48
2024-03-08T01:13:39.594Z,3.44
2024-03-08T01:14:39.620Z,3.44
2024-03-08T01:15:39.597Z,3.42
2024-03-08T01:16:39.631Z,3.42
2024-03-08T01:17:39.809Z,3.36
2024-03-08T01:18:39.623Z,3.37
2024-03-08T01:19:39.561Z,3.36
2024-03-08T01:20:39.616Z,3.36
2024-03-08T01:21:39.524Z,3.33
2024-03-08T01:22:39.536Z,3.36
2024-03-08T01:23:39.514Z,3.33
2024-03-08T01:24:39.497Z,3.35
2024-03-08T01:25:39.482Z,3.33
2024-03-08T01:26:39.506Z,3.30
2024-03-08T01:27:39.456Z,3.30
2024-03-08T01:28:39.481Z,3.32
2024-03-08T01:29:39.509Z,3.30
2024-03-08T01:30:39.433Z,3.33
2024-03-08T01:31:39.409Z,3.30
2024-03-08T01:32:39.712Z,3.30
2024-03-08T01:33:39.507Z,3.30
2024-03-08T01:34:39.389Z,3.32
2024-03-08T01:35:39.397Z,3.29
2024-03-08T01:36:39.364Z,3.30
2024-03-08T01:37:39.337Z,3.29
2024-03-08T01:38:39.414Z,3.26
2024-03-08T01:39:39.332Z,3.30
2024-03-08T01:40:39.337Z,3.29
2024-03-08T01:41:39.328Z,3.26
2024-03-08T01:42:39.303Z,3.27
2024-03-08T01:43:39.282Z,3.25
2024-03-08T01:44:39.319Z,3.25
2024-03-08T01:45:39.272Z,3.22
2024-03-08T01:46:39.243Z,3.23
2024-03-08T01:47:39.717Z,3.23
2024-03-08T01:48:39.319Z,3.22
2024-03-08T01:49:39.207Z,3.22
2024-03-08T01:50:39.219Z,3.15
2024-03-08T01:51:39.202Z,3.18
2024-03-08T01:52:39.304Z,3.15
2024-03-08T01:53:39.201Z,3.15
2024-03-08T01:54:39.147Z,3.15
2024-03-08T01:55:39.144Z,3.12
2024-03-08T01:56:39.151Z,3.11
2024-03-08T01:57:39.169Z,3.11
2024-03-08T01:58:39.148Z,3.09
2024-03-08T01:59:39.249Z,3.12
2024-03-08T02:00:39.077Z,3.08
2024-03-08T02:01:39.112Z,3.09
2024-03-08T02:02:39.119Z,3.09
2024-03-08T02:03:39.059Z,3.07
2024-03-08T02:04:39.053Z,3.09
2024-03-08T02:05:39.091Z,3.04
2024-03-08T02:06:39.028Z,3.07
2024-03-08T02:07:39.016Z,3.04
2024-03-08T02:08:39.029Z,3.04
2024-03-08T02:09:38.991Z,3.05
2024-03-08T02:10:39.009Z,3.04
2024-03-08T02:11:39.169Z,3.02
2024-03-08T02:12:38.955Z,2.97
2024-03-08T02:13:38.932Z,2.97
2024-03-08T02:14:38.955Z,2.99
2024-03-08T02:15:38.948Z,2.96
2024-03-08T02:16:38.922Z,2.94
2024-03-08T02:17:38.950Z,2.97
2024-03-08T02:18:39.072Z,2.94
2024-03-08T02:19:38.886Z,2.93
2024-03-08T02:20:38.888Z,2.94
2024-03-08T02:21:38.868Z,2.91
2024-03-08T02:22:38.887Z,2.91
2024-03-08T02:23:39.057Z,2.89
2024-03-08T02:24:38.820Z,2.91
2024-03-08T02:25:38.820Z,2.89
2024-03-08T02:26:38.861Z,2.89
2024-03-08T02:27:38.799Z,2.86
2024-03-08T02:28:38.833Z,2.86
2024-03-08T02:29:38.849Z,2.82
2024-03-08T02:30:38.759Z,2.81
2024-03-08T02:31:38.745Z,2.79
2024-03-08T02:32:38.801Z,2.75
2024-03-08T02:33:38.875Z,2.79
2024-03-08T02:34:38.714Z,2.78
2024-03-08T02:35:38.792Z,2.78
2024-03-08T02:36:38.730Z,2.78
2024-03-08T02:37:38.683Z,2.75
2024-03-08T02:38:38.708Z,2.78
2024-03-08T02:39:38.655Z,2.75
2024-03-08T02:40:38.669Z,2.73
2024-03-08T02:41:38.683Z,2.72
2024-03-08T02:42:38.625Z,2.69
2024-03-08T02:43:38.619Z,2.69
2024-03-08T02:44:38.709Z,2.66
2024-03-08T02:45:38.601Z,2.68
2024-03-08T02:46:38.682Z,2.66
2024-03-08T02:47:38.652Z,2.63
2024-03-08T02:48:38.616Z,2.63
2024-03-08T02:49:38.544Z,2.61
2024-03-08T02:50:38.569Z,2.61
2024-03-08T02:51:38.548Z,2.63
2024-03-08T02:52:38.536Z,2.60
2024-03-08T02:53:38.516Z,2.60
2024-03-08T02:54:38.509Z,2.55
2024-03-08T02:55:38.492Z,2.55
2024-03-08T02:56:38.533Z,2.57
2024-03-08T02:57:38.510Z,2.54
2024-03-08T02:58:38.487Z,2.53
2024-03-08T02:59:38.449Z,2.51
2024-03-08T03:00:38.466Z,2.53
2024-03-08T03:01:38.420Z,2.53
2024-03-08T03:02:38.512Z,2.48
2024-03-08T03:03:38.416Z,2.50
2024-03-08T03:04:38.418Z,2.47
2024-03-08T03:05:38.452Z,2.45
2024-03-08T03:06:38.380Z,2.43
2024-03-08T03:07:38.349Z,2.43
2024-03-08T03:08:38.401Z,2.42
2024-03-08T03:09:38.376Z,2.42
2024-03-08T03:10:38.637Z,2.40
2024-03-08T03:11:38.410Z,2.42
2024-03-08T03:12:38.298Z,2.37
2024-03-08T03:13:38.298Z,2.37
2024-03-08T03:14:38.307Z,2.37
2024-03-08T03:15:38.410Z,2.36
2024-03-08T03:16:38.270Z,2.36
2024-03-08T03:17:38.321Z,2.32
2024-03-08T03:18:38.325Z,2.32
2024-03-08T03:19:38.241Z,2.32
2024-03-08T03:20:38.292Z,2.30
2024-03-08T03:21:38.254Z,2.30
2024-03-08T03:22:38.230Z,2.25
2024-03-08T03:23:38.343Z,2.25
2024-03-08T03:24:38.240Z,2.28
2024-03-08T03:25:38.226Z,2.25
2024-03-08T03:26:38.216Z,2.22
2024-03-08T03:27:38.184Z,2.21
2024-03-08T03:28:38.147Z,2.24
2024-03-08T03:29:38.152Z,2.22
2024-03-08T03:30:38.104Z,2.22
2024-03-08T03:31:38.100Z,2.22
2024-03-08T03:32:38.174Z,2.22
2024-03-08T03:33:38.594Z,2.21
2024-03-08T03:34:38.098Z,2.17
2024-03-08T03:35:38.890Z,2.18
2024-03-08T03:36:38.064Z,2.17
2024-03-08T03:37:38.049Z,2.17
2024-03-08T03:38:38.074Z,2.17
2024-03-08T03:39:38.043Z,2.19
2024-03-08T03:40:38.065Z,2.17
2024-03-08T03:41:38.071Z,2.15
2024-03-08T03:42:38.020Z,2.14
2024-03-08T03:43:37.987Z,2.14
2024-03-08T03:44:38.009Z,2.11
2024-03-08T03:45:38.606Z,2.12
2024-03-08T03:46:37.958Z,2.11
2024-03-08T03:47:38.029Z,2.12
2024-03-08T03:48:37.959Z,2.06
2024-03-08T03:49:37.937Z,2.07
2024-03-08T03:50:38.077Z,2.06
2024-03-08T03:51:37.931Z,2.04
2024-03-08T03:52:37.886Z,2.07
2024-03-08T03:53:37.919Z,2.04
2024-03-08T03:54:37.873Z,2.06
2024-03-08T03:55:37.963Z,2.03
2024-03-08T03:56:37.893Z,2.06
2024-03-08T03:57:37.860Z,2.06
2024-03-08T03:58:37.841Z,2.06
2024-03-08T03:59:37.890Z,2.03
2024-03-08T04:00:37.806Z,2.06
2024-03-08T04:01:39.732Z,2.03
2024-03-08T04:02:37.821Z,2.01
2024-03-08T04:03:37.825Z,2.04
2024-03-08T04:04:37.776Z,2.03
2024-03-08T04:05:37.959Z,2.01
2024-03-08T04:06:37.771Z,2.04
2024-03-08T04:07:37.737Z,2.03
2024-03-08T04:08:37.768Z,2.03
2024-03-08T04:09:37.788Z,2.01
2024-03-08T04:10:37.740Z,2.00
2024-03-08T04:11:37.817Z,2.00
2024-03-08T04:12:37.682Z,2.00
2024-03-08T04:13:37.684Z,1.97
2024-03-08T04:14:37.782Z,2.00
2024-03-08T04:15:37.679Z,1.99
2024-03-08T04:16:37.637Z,2.01
2024-03-08T04:17:37.694Z,2.00
2024-03-08T04:18:37.749Z,1.99
2024-03-08T04:19:37.608Z,1.99
2024-03-08T04:20:37.642Z,1.99
2024-03-08T04:21:37.621Z,2.00
2024-03-08T04:22:37.586Z,2.00
2024-03-08T04:23:37.611Z,1.99
2024-03-08T04:24:37.598Z,2.01
2024-03-08T04:25:37.547Z,1.97
2024-03-08T04:26:37.549Z,1.99
2024-03-08T04:27:37.550Z,1.99
2024-03-08T04:28:37.543Z,1.99
2024-03-08T04:29:37.533Z,1.97
2024-03-08T04:30:37.520Z,1.97
2024-03-08T04:31:37.487Z,2.00
2024-03-08T04:32:37.581Z,1.97
2024-03-08T04:33:37.578Z,1.95
2024-03-08T04:34:37.492Z,1.95
2024-03-08T04:35:37.505Z,1.93
2024-03-08T04:36:37.451Z,1.95
2024-03-08T04:37:37.502Z,1.92
2024-03-08T04:38:37.470Z,1.91
2024-03-08T04:39:37.405Z,1.92
2024-03-08T04:40:37.391Z,1.93
2024-03-08T04:41:37.420Z,1.93
2024-03-08T04:42:37.393Z,1.92
2024-03-08T04:43:37.388Z,1.91
2024-03-08T04:44:37.387Z,1.87
2024-03-08T04:45:37.346Z,1.91
2024-03-08T04:46:37.362Z,1.92
2024-03-08T04:47:37.452Z,1.91
2024-03-08T04:48:37.399Z,1.93
2024-03-08T04:49:37.294Z,1.87
2024-03-08T04:50:37.324Z,1.91
2024-03-08T04:51:37.445Z,1.91
2024-03-08T04:52:37.336Z,1.91
2024-03-08T04:53:37.333Z,1.87
2024-03-08T04:54:37.238Z,1.85
2024-03-08T04:55:37.259Z,1.85
2024-03-08T04:56:37.385Z,1.85
2024-03-08T04:57:37.227Z,1.84
2024-03-08T04:58:37.262Z,1.84
2024-03-08T04:59:37.695Z,1.84
2024-03-08T05:00:37.254Z,1.81
2024-03-08T05:01:37.246Z,1.85
2024-03-08T05:02:37.225Z,1.81
2024-03-08T05:03:37.158Z,1.80
2024-03-08T05:04:37.152Z,1.80
2024-03-08T05:05:37.258Z,1.80
2024-03-08T05:06:37.125Z,1.77
2024-03-08T05:07:37.127Z,1.78
2024-03-08T05:08:37.129Z,1.75
2024-03-08T05:09:37.108Z,1.71
2024-03-08T05:10:37.106Z,1.75
2024-03-08T05:11:37.084Z,1.71
2024-03-08T05:12:37.039Z,1.69
2024-03-08T05:13:37.024Z,1.67
2024-03-08T05:14:37.049Z,1.67
2024-03-08T05:15:37.007Z,1.67
2024-03-08T05:16:36.966Z,1.67
2024-03-08T05:17:37.058Z,1.66
2024-03-08T05:18:36.978Z,1.64
2024-03-08T05:19:36.944Z,1.66
2024-03-08T05:20:37.018Z,1.66
2024-03-08T05:21:36.972Z,1.63
2024-03-08T05:22:36.936Z,1.60
2024-03-08T05:23:36.927Z,1.60
2024-03-08T05:24:36.954Z,1.62
2024-03-08T05:25:36.922Z,1.60
2024-03-08T05:26:36.922Z,1.59
2024-03-08T05:27:36.857Z,1.57
2024-03-08T05:28:36.861Z,1.53
2024-03-08T05:29:36.852Z,1.56
2024-03-08T05:30:36.834Z,1.56
2024-03-08T05:31:36.834Z,1.55
2024-03-08T05:32:36.876Z,1.55
2024-03-08T05:33:36.823Z,1.49
2024-03-08T05:34:36.803Z,1.49
2024-03-08T05:35:36.849Z,1.48
2024-03-08T05:36:36.767Z,1.44
2024-03-08T05:37:36.754Z,1.45
2024-03-08T05:38:36.790Z,1.46
2024-03-08T05:39:36.828Z,1.45
2024-03-08T05:40:36.706Z,1.45
2024-03-08T05:41:36.754Z,1.46
2024-03-08T05:42:36.687Z,1.44
2024-03-08T05:43:36.693Z,1.44
2024-03-08T05:44:36.728Z,1.41
2024-03-08T05:45:36.687Z,1.44
2024-03-08T05:46:36.664Z,1.44
2024-03-08T05:47:36.712Z,1.41
2024-03-08T05:48:36.748Z,1.42
2024-03-08T05:49:36.649Z,1.41
2024-03-08T05:50:36.657Z,1.41
2024-03-08T05:51:36.597Z,1.38
2024-03-08T05:52:36.637Z,1.41
2024-03-08T05:53:36.656Z,1.39
2024-03-08T05:54:36.584Z,1.41
2024-03-08T05:55:36.588Z,1.41
2024-03-08T05:56:36.611Z,1.39
2024-03-08T05:57:36.566Z,1.41
2024-03-08T05:58:36.536Z,1.36
2024-03-08T05:59:36.580Z,1.36
2024-03-08T06:00:36.572Z,1.36
2024-03-08T06:01:36.543Z,1.35
2024-03-08T06:02:36.555Z,1.38
2024-03-08T06:03:36.529Z,1.34
2024-03-08T06:04:36.493Z,1.35
2024-03-08T06:05:36.528Z,1.34
2024-03-08T06:06:36.527Z,1.34
2024-03-08T06:07:36.473Z,1.35
2024-03-08T06:08:36.484Z,1.34
2024-03-08T06:09:36.461Z,1.31
2024-03-08T06:10:36.426Z,1.28
2024-03-08T06:11:36.544Z,1.28
2024-03-08T06:12:36.426Z,1.28
2024-03-08T06:13:36.385Z,1.28
2024-03-08T06:14:36.445Z,1.30
2024-03-08T06:15:36.369Z,1.34
2024-03-08T06:16:36.378Z,1.34
2024-03-08T06:17:36.428Z,1.35
2024-03-08T06:18:36.381Z,1.31
2024-03-08T06:19:36.323Z,1.31
2024-03-08T06:20:36.375Z,1.28
2024-03-08T06:21:36.339Z,1.31
2024-03-08T06:22:36.332Z,1.27
2024-03-08T06:23:36.310Z,1.26
2024-03-08T06:24:36.259Z,1.30
2024-03-08T06:25:36.261Z,1.28
2024-03-08T06:26:38.112Z,1.27
2024-03-08T06:27:36.259Z,1.24
2024-03-08T06:28:36.201Z,1.23
2024-03-08T06:29:36.266Z,1.23
2024-03-08T06:30:36.214Z,1.24
2024-03-08T06:31:36.217Z,1.24
2024-03-08T06:32:36.225Z,1.26
2024-03-08T06:33:36.278Z,1.24
2024-03-08T06:34:36.187Z,1.26
2024-03-08T06:35:36.294Z,1.27
2024-03-08T06:36:36.152Z,1.28
2024-03-08T06:37:36.127Z,1.30
2024-03-08T06:38:36.166Z,1.28
2024-03-08T06:39:36.199Z,1.34
2024-03-08T06:40:36.095Z,1.34
2024-03-08T06:41:37.952Z,1.35
2024-03-08T06:42:36.127Z,1.34
2024-03-08T06:43:36.085Z,1.36
2024-03-08T06:44:36.073Z,1.36
2024-03-08T06:45:36.074Z,1.36
2024-03-08T06:46:36.038Z,1.39
2024-03-08T06:47:36.063Z,1.41
2024-03-08T06:48:36.196Z,1.42
2024-03-08T06:49:36.009Z,1.46
2024-03-08T06:50:36.037Z,1.48
2024-03-08T06:51:35.984Z,1.48
2024-03-08T06:52:36.019Z,1.52
2024-03-08T06:53:35.981Z,1.55
2024-03-08T06:54:35.938Z,1.59
2024-03-08T06:55:35.971Z,1.60
2024-03-08T06:56:35.983Z,1.63
2024-03-08T06:57:35.936Z,1.67
2024-03-08T06:58:35.880Z,1.66
2024-03-08T06:59:35.984Z,1.71
2024-03-08T07:00:35.883Z,1.77
2024-03-08T07:01:35.948Z,1.78
2024-03-08T07:02:35.916Z,1.81
2024-03-08T07:03:35.878Z,1.82
2024-03-08T07:04:35.839Z,1.89
2024-03-08T07:05:35.916Z,1.92
2024-03-08T07:06:35.893Z,1.95
2024-03-08T07:07:35.832Z,1.97
2024-03-08T07:08:35.820Z,2.00
2024-03-08T07:09:35.830Z,2.04
2024-03-08T07:10:35.784Z,2.07
2024-03-08T07:11:35.842Z,2.14
2024-03-08T07:12:35.800Z,2.15
2024-03-08T07:13:35.802Z,2.22
2024-03-08T07:14:35.763Z,2.22
2024-03-08T07:15:35.733Z,2.29
2024-03-08T07:16:35.719Z,2.35
2024-03-08T07:17:35.777Z,2.37
2024-03-08T07:18:35.761Z,2.43
2024-03-08T07:19:35.676Z,2.48
2024-03-08T07:20:35.705Z,2.51
2024-03-08T07:21:35.680Z,2.54
2024-03-08T07:22:35.629Z,2.58
2024-03-08T07:23:35.681Z,2.65
2024-03-08T07:24:35.619Z,2.66
2024-03-08T07:25:35.705Z,2.69
2024-03-08T07:26:35.646Z,2.71
2024-03-08T07:27:35.639Z,2.78
2024-03-08T07:28:35.589Z,2.76
2024-03-08T07:29:35.597Z,2.86
2024-03-08T07:30:35.785Z,2.86
2024-03-08T07:31:35.567Z,2.90
2024-03-08T07:32:35.652Z,2.93
2024-03-08T07:33:35.632Z,2.96
2024-03-08T07:34:35.564Z,3.02
2024-03-08T07:35:35.550Z,3.05
2024-03-08T07:36:35.571Z,3.07
2024-03-08T07:37:35.477Z,3.09
2024-03-08T07:38:35.510Z,3.12
2024-03-08T07:39:35.446Z,3.15
2024-03-08T07:40:35.441Z,3.22
2024-03-08T07:41:35.598Z,3.29
2024-03-08T07:42:35.449Z,3.30
2024-03-08T07:43:35.440Z,3.36
2024-03-08T07:44:35.441Z,3.41
2024-03-08T07:45:35.414Z,3.44
2024-03-08T07:46:35.388Z,3.45
2024-03-08T07:47:35.478Z,3.52
2024-03-08T07:48:35.443Z,3.52
2024-03-08T07:49:35.372Z,3.54
2024-03-08T07:50:35.374Z,3.55
2024-03-08T07:51:35.424Z,3.54
2024-03-08T07:52:35.342Z,3.59
2024-03-08T07:53:35.329Z,3.56
2024-03-08T07:54:35.353Z,3.63
2024-03-08T07:55:35.337Z,3.66
2024-03-08T07:56:36.485Z,3.70
2024-03-08T07:57:35.268Z,3.72
2024-03-08T07:58:35.758Z,3.72
2024-03-08T07:59:35.240Z,3.76
2024-03-08T08:00:35.235Z,3.81
2024-03-08T08:01:35.453Z,3.82
2024-03-08T08:02:37.826Z,3.85
2024-03-08T08:03:35.220Z,3.87
2024-03-08T08:04:35.273Z,3.87
2024-03-08T08:05:35.157Z,3.88
2024-03-08T08:06:35.160Z,3.87
2024-03-08T08:07:35.188Z,3.96
2024-03-08T08:08:35.157Z,4.00
2024-03-08T08:09:35.131Z,4.05
2024-03-08T08:10:35.177Z,4.06
2024-03-08T08:11:35.107Z,4.06
2024-03-08T08:12:35.094Z,4.08
2024-03-08T08:13:35.172Z,4.09
2024-03-08T08:14:35.087Z,4.12
2024-03-08T08:15:35.140Z,4.13
2024-03-08T08:16:35.081Z,4.17
2024-03-08T08:17:35.057Z,4.18
2024-03-08T08:18:35.046Z,4.21
2024-03-08T08:19:35.074Z,4.24
2024-03-08T08:20:35.091Z,4.23
2024-03-08T08:21:34.997Z,4.23
2024-03-08T08:22:34.983Z,4.23
2024-03-08T08:23:34.956Z,4.26
2024-03-08T08:24:34.973Z,4.27
2024-03-08T08:25:34.984Z,4.30
2024-03-08T08:26:38.014Z,4.36
2024-03-08T08:27:34.959Z,4.39
2024-03-08T08:28:35.005Z,4.46
2024-03-08T08:29:34.900Z,4.54
2024-03-08T08:30:35.133Z,4.57
2024-03-08T08:31:34.914Z,4.60
2024-03-08T08:32:34.953Z,4.61
2024-03-08T08:33:34.885Z,4.64
2024-03-08T08:34:34.918Z,4.66
2024-03-08T08:35:34.837Z,4.67
2024-03-08T08:36:34.840Z,4.74
2024-03-08T08:37:34.842Z,4.72
2024-03-08T08:38:34.864Z,4.77
2024-03-08T08:39:34.812Z,4.85
2024-03-08T08:40:34.798Z,4.96
2024-03-08T08:41:34.768Z,4.98
2024-03-08T08:42:34.771Z,5.00
2024-03-08T08:43:35.353Z,5.01
2024-03-08T08:44:34.853Z,4.97
2024-03-08T08:45:34.743Z,5.01
2024-03-08T08:46:35.706Z,5.03
2024-03-08T08:47:34.961Z,5.04
2024-03-08T08:48:34.755Z,5.04
2024-03-08T08:49:34.748Z,5.11
2024-03-08T08:50:34.712Z,5.14
2024-03-08T08:51:35.853Z,5.16
2024-03-08T08:52:34.663Z,5.27
2024-03-08T08:53:34.659Z,5.32
2024-03-08T08:54:34.636Z,5.30
2024-03-08T08:55:34.621Z,5.32
2024-03-08T08:56:34.748Z,5.34
2024-03-08T08:57:34.617Z,5.40
2024-03-08T08:58:34.591Z,5.47
2024-03-08T08:59:34.573Z,5.54
2024-03-08T09:00:34.596Z,5.57
2024-03-08T09:01:34.789Z,5.58
2024-03-08T09:02:34.702Z,5.55
2024-03-08T09:03:34.553Z,5.47
2024-03-08T09:04:34.584Z,5.50
2024-03-08T09:05:36.556Z,5.55
2024-03-08T09:06:34.534Z,5.67
2024-03-08T09:07:34.563Z,5.69
2024-03-08T09:08:34.490Z,5.69
2024-03-08T09:09:34.463Z,5.73
2024-03-08T09:10:34.505Z,5.76
2024-03-08T09:11:34.555Z,5.87
2024-03-08T09:12:34.433Z,5.95
2024-03-08T09:13:35.475Z,5.95
2024-03-08T09:14:34.442Z,5.93
2024-03-08T09:15:34.445Z,5.84
2024-03-08T09:16:34.417Z,5.85
2024-03-08T09:17:34.407Z,5.90
2024-03-08T09:18:34.403Z,5.95
2024-03-08T09:19:34.383Z,5.97
2024-03-08T09:20:34.357Z,5.95
2024-03-08T09:21:34.343Z,5.93
2024-03-08T09:22:34.361Z,5.91
2024-03-08T09:23:34.317Z,5.93
2024-03-08T09:24:34.305Z,5.95
2024-03-08T09:25:34.330Z,5.95
2024-03-08T09:26:34.367Z,5.94
2024-03-08T09:27:35.702Z,6.02
2024-03-08T09:28:34.284Z,6.18
2024-03-08T09:29:34.273Z,6.34
2024-03-08T09:30:34.240Z,6.43
2024-03-08T09:31:34.270Z,6.52
2024-03-08T09:32:34.298Z,6.49
2024-03-08T09:33:36.172Z,6.56
2024-03-08T09:34:37.867Z,6.65
2024-03-08T09:35:34.229Z,6.71
2024-03-08T09:36:34.351Z,6.71
2024-03-08T09:37:34.219Z,6.73
2024-03-08T09:38:34.249Z,6.92
2024-03-08T09:39:34.155Z,7.03
2024-03-08T09:40:34.178Z,7.07
2024-03-08T09:41:34.154Z,7.08
2024-03-08T09:42:34.127Z,7.07
2024-03-08T09:43:34.668Z,6.99
2024-03-08T09:44:34.081Z,7.01
2024-03-08T09:45:34.113Z,7.15
2024-03-08T09:46:34.085Z,7.22
2024-03-08T09:47:34.070Z,7.15
2024-03-08T09:48:34.052Z,7.18
2024-03-08T09:49:34.735Z,7.19
2024-03-08T09:50:34.019Z,7.16
2024-03-08T09:51:34.048Z,7.15
2024-03-08T09:52:34.081Z,7.26
2024-03-08T09:53:34.006Z,7.31
2024-03-08T09:54:33.987Z,7.39
2024-03-08T09:55:34.108Z,7.57
2024-03-08T09:56:33.975Z,7.62
2024-03-08T09:57:34.041Z,7.71
2024-03-08T09:58:34.097Z,7.80
2024-03-08T09:59:33.956Z,7.76
2024-03-08T10:00:33.937Z,7.68
2024-03-08T10:01:33.972Z,7.69
2024-03-08T10:02:33.918Z,7.64
2024-03-08T10:03:33.938Z,7.71
2024-03-08T10:04:34.182Z,7.94
2024-03-08T10:05:33.888Z,8.06
2024-03-08T10:06:33.874Z,8.24
2024-03-08T10:07:33.900Z,8.28
2024-03-08T10:08:33.846Z,8.20
2024-03-08T10:09:33.877Z,8.05
2024-03-08T10:10:33.843Z,7.98
2024-03-08T10:11:33.848Z,7.95
2024-03-08T10:12:33.796Z,8.06
2024-03-08T10:13:33.819Z,8.16
2024-03-08T10:14:33.831Z,8.14
2024-03-08T10:15:33.758Z,8.23
2024-03-08T10:16:33.766Z,8.24
2024-03-08T10:17:34.056Z,8.13
2024-03-08T10:18:33.735Z,8.05
2024-03-08T10:19:33.772Z,7.99
2024-03-08T10:20:33.750Z,7.99
2024-03-08T10:21:33.704Z,7.98
2024-03-08T10:22:33.705Z,8.02
2024-03-08T10:23:33.736Z,8.02
2024-03-08T10:24:33.722Z,8.20
2024-03-08T10:25:33.702Z,8.41
2024-03-08T10:26:33.666Z,8.49
2024-03-08T10:27:33.662Z,8.57
2024-03-08T10:28:33.636Z,8.72
2024-03-08T10:29:33.650Z,8.77
2024-03-08T10:30:33.845Z,8.78
2024-03-08T10:31:33.649Z,8.68
2024-03-08T10:32:33.637Z,8.59
2024-03-08T10:33:33.569Z,8.49
2024-03-08T10:34:33.624Z,8.46
2024-03-08T10:35:33.548Z,8.56
2024-03-08T10:36:33.558Z,8.70
2024-03-08T10:37:33.630Z,8.80
2024-03-08T10:38:33.555Z,8.93
2024-03-08T10:39:33.533Z,8.96
2024-03-08T10:40:33.544Z,8.95
2024-03-08T10:41:33.484Z,8.99
2024-03-08T10:42:35.855Z,8.86
2024-03-08T10:43:33.510Z,8.63
2024-03-08T10:44:33.537Z,8.55
2024-03-08T10:45:33.502Z,8.62
2024-03-08T10:46:33.563Z,8.53
2024-03-08T10:47:33.546Z,8.47
2024-03-08T10:48:37.158Z,8.57
2024-03-08T10:49:33.512Z,8.81
2024-03-08T10:50:33.469Z,9.26
2024-03-08T10:51:33.515Z,9.48
2024-03-08T10:52:33.482Z,9.54
2024-03-08T10:53:33.460Z,9.66
2024-03-08T10:54:33.440Z,9.52
2024-03-08T10:55:33.436Z,9.44
2024-03-08T10:56:33.393Z,9.54
2024-03-08T10:57:33.340Z,9.40
2024-03-08T10:58:33.489Z,9.18
2024-03-08T10:59:33.362Z,8.81
2024-03-08T11:00:33.387Z,8.67
2024-03-08T11:01:33.471Z,8.62
2024-03-08T11:02:33.352Z,8.62
2024-03-08T11:03:33.309Z,8.81
2024-03-08T11:04:33.302Z,9.11
2024-03-08T11:05:33.266Z,9.34
2024-03-08T11:06:33.269Z,9.51
2024-03-08T11:07:33.361Z,9.37
2024-03-08T11:08:33.302Z,9.42
2024-03-08T11:09:33.242Z,9.04
2024-03-08T11:10:33.264Z,8.70
2024-03-08T11:11:34.445Z,8.55
2024-03-08T11:12:33.270Z,8.57
2024-03-08T11:13:33.233Z,8.57
2024-03-08T11:14:33.219Z,8.52
2024-03-08T11:15:33.235Z,8.65
2024-03-08T11:16:33.293Z,8.65
2024-03-08T11:17:33.472Z,8.70
2024-03-08T11:18:33.190Z,8.78
2024-03-08T11:19:33.268Z,9.29
2024-03-08T11:20:33.247Z,9.47
2024-03-08T11:21:33.148Z,9.52
2024-03-08T11:22:33.176Z,9.50
2024-03-08T11:23:33.380Z,9.52
2024-03-08T11:24:34.027Z,9.48
2024-03-08T11:25:33.245Z,9.36
2024-03-08T11:26:33.125Z,9.24
2024-03-08T11:27:33.064Z,9.09
2024-03-08T11:28:33.065Z,9.01
2024-03-08T11:29:33.087Z,8.93
2024-03-08T11:30:33.077Z,8.83
2024-03-08T11:31:33.194Z,8.85
2024-03-08T11:32:33.142Z,9.09
2024-03-08T11:33:33.120Z,9.04
2024-03-08T11:34:33.181Z,8.98
2024-03-08T11:35:32.950Z,8.90
2024-03-08T11:36:32.952Z,8.85
2024-03-08T11:37:32.954Z,8.77
2024-03-08T11:38:32.948Z,8.75
2024-03-08T11:39:32.956Z,8.71
2024-03-08T11:40:32.971Z,8.68
2024-03-08T11:41:33.035Z,8.67
2024-03-08T11:42:32.912Z,8.68
2024-03-08T11:43:32.997Z,8.70
2024-03-08T11:44:32.967Z,8.77
2024-03-08T11:45:32.968Z,8.78
2024-03-08T11:46:32.906Z,8.88
2024-03-08T11:47:33.010Z,9.04
2024-03-08T11:48:32.823Z,9.54
2024-03-08T11:49:32.829Z,9.84
2024-03-08T11:50:32.812Z,9.81
2024-03-08T11:51:32.810Z,9.67
2024-03-08T11:52:32.825Z,9.80
2024-03-08T11:53:32.793Z,9.73
2024-03-08T11:54:32.761Z,9.60
2024-03-08T11:55:32.873Z,9.66
2024-03-08T11:56:32.754Z,9.63
2024-03-08T11:57:32.745Z,9.66
2024-03-08T11:58:32.770Z,9.67
2024-03-08T11:59:32.767Z,9.63
2024-03-08T12:00:32.713Z,9.51
2024-03-08T12:01:33.023Z,9.45
2024-03-08T12:02:32.705Z,9.42
2024-03-08T12:03:32.698Z,9.50
2024-03-08T12:04:32.743Z,9.65
2024-03-08T12:05:32.681Z,9.67
2024-03-08T12:06:32.672Z,9.80
2024-03-08T12:07:32.673Z,10.01
2024-03-08T12:08:32.684Z,10.24
2024-03-08T12:09:32.674Z,10.39
2024-03-08T12:10:32.689Z,10.09
2024-03-08T12:11:33.673Z,9.83
2024-03-08T12:12:32.582Z,9.60
2024-03-08T12:13:32.598Z,9.45
2024-03-08T12:14:32.611Z,9.44
2024-03-08T12:15:32.701Z,9.70
2024-03-08T12:16:32.585Z,9.98
2024-03-08T12:17:32.568Z,10.08
2024-03-08T12:18:32.530Z,10.16
2024-03-08T12:19:32.629Z,9.93
2024-03-08T12:20:32.565Z,9.88
2024-03-08T12:21:32.508Z,9.81
2024-03-08T12:22:32.565Z,10.02
2024-03-08T12:23:32.524Z,10.09
2024-03-08T12:24:32.488Z,10.05
2024-03-08T12:25:32.586Z,10.02
2024-03-08T12:26:32.432Z,10.06
2024-03-08T12:27:32.429Z,10.06
2024-03-08T12:28:32.461Z,10.16
2024-03-08T12:29:32.412Z,10.31
2024-03-08T12:30:32.415Z,10.34
2024-03-08T12:31:32.432Z,10.45
2024-03-08T12:32:32.433Z,10.38
2024-03-08T12:33:32.411Z,10.28
2024-03-08T12:34:32.392Z,10.18
2024-03-08T12:35:32.440Z,10.08
2024-03-08T12:36:32.361Z,10.28
2024-03-08T12:37:32.444Z,10.28
2024-03-08T12:38:32.317Z,10.35
2024-03-08T12:39:32.310Z,10.20
2024-03-08T12:40:32.508Z,10.02
2024-03-08T12:41:32.324Z,9.84
2024-03-08T12:42:32.305Z,9.69
2024-03-08T12:43:32.993Z,9.59
2024-03-08T12:44:32.306Z,9.48
2024-03-08T12:45:32.262Z,9.47
2024-03-08T12:46:32.306Z,9.45
2024-03-08T12:47:32.279Z,9.50
2024-03-08T12:48:32.215Z,9.63
2024-03-08T12:49:32.299Z,9.85
2024-03-08T12:50:32.202Z,10.01
2024-03-08T12:51:32.228Z,10.05
2024-03-08T12:52:32.202Z,10.14
2024-03-08T12:53:32.177Z,10.12
2024-03-08T12:54:32.215Z,10.03
2024-03-08T12:55:33.593Z,9.93
2024-03-08T12:56:32.201Z,9.83
2024-03-08T12:57:32.272Z,9.77
2024-03-08T12:58:32.148Z,9.91
2024-03-08T12:59:32.116Z,10.03
2024-03-08T13:00:32.151Z,10.12
2024-03-08T13:01:32.193Z,10.24
2024-03-08T13:02:32.096Z,10.65
2024-03-08T13:03:32.080Z,11.12
2024-03-08T13:04:32.102Z,11.20
2024-03-08T13:05:32.126Z,11.28
2024-03-08T13:06:32.079Z,11.23
2024-03-08T13:07:32.111Z,11.22
2024-03-08T13:08:32.049Z,11.20
2024-03-08T13:09:32.040Z,11.15
2024-03-08T13:10:32.024Z,11.20
2024-03-08T13:11:32.088Z,11.33
2024-03-08T13:12:32.005Z,11.45
2024-03-08T13:13:32.048Z,11.48
2024-03-08T13:14:31.995Z,11.30
2024-03-08T13:15:31.973Z,11.04
2024-03-08T13:16:31.943Z,10.97